Time;durP1;ratioP1;P1;durP2;ratioP2;P2;SDS_P1;SDS_P2;PMS_P1;PMS_P2;Temp;Humidity;BMP_temperature;BMP_pressure;BME280_temperature;BME280_humidity;BME280_pressure;Samples;Min_cycle;Max_cycle;Signal;HPM_P1;HPM_P2
2023/04/24 00:00:27;;;;;;;;;1.00;1.00;;;;;21.91;47.13;99892.48;111833;1266;19854;-38
2023/04/24 00:03:15;;;;;;;;;1.00;1.00;;;;;21.89;47.13;99885.21;111573;1251;23531;-38
2023/04/24 00:05:42;;;;;;;;;2.00;2.00;;;;;21.90;47.13;99885.77;111884;1266;20131;-38
2023/04/24 00:08:10;;;;;;;;;1.50;1.50;;;;;21.89;47.11;99883.96;111586;1266;18808;-38
2023/04/24 00:10:37;;;;;;;;;1.00;1.00;;;;;21.89;47.02;99882.49;111896;1250;20954;-38
2023/04/24 00:13:04;;;;;;;;;1.67;1.67;;;;;21.90;47.00;99881.56;111662;1250;20028;-38
2023/04/24 00:15:32;;;;;;;;;1.00;1.00;;;;;21.89;47.00;99880.18;111905;1250;19623;-37
2023/04/24 00:18:01;;;;;;;;;1.00;1.00;;;;;21.89;47.07;99881.07;111632;1250;19367;-38
2023/04/24 00:20:29;;;;;;;;;1.00;1.00;;;;;21.90;46.93;99880.81;111792;1266;21691;-37
2023/04/24 00:22:56;;;;;;;;;1.00;1.00;;;;;21.89;47.02;99874.69;111877;1266;19583;-38
2023/04/24 00:25:24;;;;;;;;;1.00;1.00;;;;;21.90;47.10;99874.09;111754;1266;21750;-38
2023/04/24 00:27:51;;;;;;;;;2.00;2.00;;;;;21.89;47.11;99873.26;111613;1250;21941;-39
2023/04/24 00:30:18;;;;;;;;;2.00;2.00;;;;;21.89;47.06;99868.89;111774;1250;19533;-38
2023/04/24 00:32:46;;;;;;;;;1.00;1.00;;;;;21.90;47.12;99870.27;111561;1260;22249;-39
2023/04/24 00:35:14;;;;;;;;;1.00;1.00;;;;;21.90;46.94;99864.41;111831;1250;21611;-40
2023/04/24 00:37:41;;;;;;;;;1.00;1.00;;;;;21.89;47.22;99864.16;112007;1253;19594;-37
2023/04/24 00:40:09;;;;;;;;;1.33;1.33;;;;;21.90;47.21;99862.17;111746;1254;20684;-39
2023/04/24 00:42:37;;;;;;;;;1.00;1.00;;;;;21.90;46.96;99861.05;111974;1250;21508;-38
2023/04/24 00:45:04;;;;;;;;;2.00;2.00;;;;;21.90;47.00;99858.99;111747;1266;18823;-39
2023/04/24 00:47:31;;;;;;;;;2.00;2.00;;;;;21.91;46.87;99857.98;112030;1266;19506;-39
2023/04/24 00:49:59;;;;;;;;;2.00;2.00;;;;;21.90;47.04;99852.44;111773;1266;20136;-39
2023/04/24 00:52:26;;;;;;;;;1.00;1.00;;;;;21.90;47.12;99849.84;111822;1253;19650;-38
2023/04/24 00:54:54;;;;;;;;;1.00;1.00;;;;;21.89;47.05;99848.91;111800;1266;19330;-38
2023/04/24 00:57:23;;;;;;;;;1.00;1.00;;;;;21.90;46.94;99848.84;111994;1266;21487;-40
2023/04/24 00:59:50;;;;;;;;;1.00;1.00;;;;;21.89;47.07;99850.35;111488;1266;18717;-40
2023/04/24 01:02:18;;;;;;;;;1.00;1.00;;;;;21.90;46.79;99851.48;111841;1252;20819;-39
2023/04/24 01:04:45;;;;;;;;;2.00;2.00;;;;;21.91;47.04;99849.42;111492;1266;20176;-39
2023/04/24 01:07:13;;;;;;;;;1.00;1.00;;;;;21.91;46.94;99847.36;111845;1266;20652;-40
2023/04/24 01:09:41;;;;;;;;;2.00;2.00;;;;;21.90;47.04;99841.53;111512;1266;19373;-39
2023/04/24 01:12:08;;;;;;;;;1.00;1.00;;;;;21.90;46.87;99840.19;111833;1250;21808;-39
2023/04/24 01:14:36;;;;;;;;;2.00;1.00;;;;;21.90;47.10;99838.21;111543;1250;19936;-39
2023/04/24 01:17:03;;;;;;;;;1.00;1.00;;;;;21.90;47.06;99840.40;111782;1266;20732;-39
2023/04/24 01:19:31;;;;;;;;;1.50;1.50;;;;;21.90;47.03;99839.77;111406;1266;22150;-39
2023/04/24 01:21:58;;;;;;;;;1.00;1.00;;;;;21.90;47.03;99839.19;111810;1266;18991;-40
2023/04/24 01:24:26;;;;;;;;;1.00;1.00;;;;;21.88;47.02;99832.30;111480;1250;20691;-38
2023/04/24 01:26:53;;;;;;;;;1.33;1.33;;;;;21.89;46.92;99836.34;111916;1266;21939;-40
2023/04/24 01:29:20;;;;;;;;;1.00;1.00;;;;;21.90;46.84;99835.48;111496;1250;19630;-39
2023/04/24 01:31:48;;;;;;;;;1.00;1.00;;;;;21.91;47.03;99837.96;111858;1266;19333;-38
2023/04/24 01:34:16;;;;;;;;;1.33;1.33;;;;;21.90;46.97;99832.38;111540;1266;20291;-38
2023/04/24 01:36:44;;;;;;;;;2.00;2.00;;;;;21.91;46.97;99833.80;111759;1250;19554;-39
2023/04/24 01:39:11;;;;;;;;;1.00;1.00;;;;;21.90;46.99;99836.41;111875;1266;20743;-39
2023/04/24 01:41:39;;;;;;;;;1.00;1.00;;;;;21.90;47.09;99834.66;111775;1250;22788;-40
2023/04/24 01:44:06;;;;;;;;;1.50;1.50;;;;;21.90;46.99;99830.91;111643;1266;18668;-39
2023/04/24 01:46:34;;;;;;;;;1.00;1.00;;;;;21.90;46.93;99827.90;111775;1266;20644;-39
2023/04/24 01:49:01;;;;;;;;;4.00;2.00;;;;;21.90;47.03;99829.11;111924;1266;21397;-39
2023/04/24 01:51:29;;;;;;;;;2.00;2.00;;;;;21.90;46.88;99830.53;111743;1250;20665;-39
2023/04/24 01:53:57;;;;;;;;;2.00;2.00;;;;;21.91;46.98;99829.23;111978;1266;19573;-39
2023/04/24 01:56:24;;;;;;;;;2.00;2.00;;;;;21.91;46.87;99826.46;111702;1250;21579;-39
2023/04/24 01:58:52;;;;;;;;;1.00;1.00;;;;;21.91;47.00;99826.13;112011;1250;18921;-39
2023/04/24 02:01:19;;;;;;;;;2.00;2.00;;;;;21.92;46.95;99825.63;111730;1250;21166;-40
2023/04/24 02:03:47;;;;;;;;;1.00;1.00;;;;;21.93;47.05;99824.77;112001;1266;23322;-39
2023/04/24 02:06:14;;;;;;;;;1.00;1.00;;;;;21.92;46.92;99823.27;111705;1266;18718;-41
2023/04/24 02:08:42;;;;;;;;;2.00;2.00;;;;;21.92;46.97;99821.98;111986;1266;19364;-39
2023/04/24 02:11:09;;;;;;;;;2.00;2.00;;;;;21.91;46.82;99823.56;111714;1250;21607;-39
2023/04/24 02:13:36;;;;;;;;;1.00;1.00;;;;;21.91;46.77;99813.74;111956;1266;19571;-39
2023/04/24 02:16:04;;;;;;;;;1.00;1.00;;;;;21.91;46.90;99817.52;111712;1250;20719;-39
2023/04/24 02:18:31;;;;;;;;;1.00;1.00;;;;;21.92;46.87;99810.89;111959;1260;21360;-39
2023/04/24 02:20:59;;;;;;;;;1.00;1.00;;;;;21.92;46.90;99806.52;111748;1266;20720;-38
2023/04/24 02:23:27;;;;;;;;;1.00;1.00;;;;;21.91;46.87;99806.31;111743;1266;20716;-39
2023/04/24 02:25:54;;;;;;;;;2.00;2.00;;;;;21.92;46.91;99801.44;111735;1266;21438;-39
2023/04/24 02:28:21;;;;;;;;;1.00;1.00;;;;;21.91;46.87;99799.05;111948;1266;19128;-40
2023/04/24 02:30:49;;;;;;;;;1.00;1.00;;;;;21.91;46.73;99799.13;111731;1266;20686;-38
2023/04/24 02:33:16;;;;;;;;;1.00;1.00;;;;;21.92;46.77;99798.09;112028;1250;21623;-38
2023/04/24 02:35:44;;;;;;;;;2.00;2.00;;;;;21.92;46.78;99798.63;111746;1266;18708;-38
2023/04/24 02:38:11;;;;;;;;;2.00;2.00;;;;;21.92;46.75;99795.73;111911;1253;20800;-39
2023/04/24 02:40:39;;;;;;;;;1.00;1.00;;;;;21.92;46.77;99800.14;111775;1250;21459;-39
2023/04/24 02:43:06;;;;;;;;;1.00;1.00;;;;;21.92;46.78;99798.30;111698;1266;19030;-39
2023/04/24 02:45:34;;;;;;;;;2.00;1.00;;;;;21.92;46.95;99794.85;111801;1250;20747;-40
2023/04/24 02:48:02;;;;;;;;;2.00;2.00;;;;;21.92;46.76;99796.29;112035;1250;21732;-39
2023/04/24 02:50:29;;;;;;;;;2.00;2.00;;;;;21.93;46.81;99791.83;111710;1266;19590;-39
2023/04/24 02:52:56;;;;;;;;;1.00;1.00;;;;;21.92;46.78;99791.79;112004;1266;19356;-41
2023/04/24 02:55:24;;;;;;;;;1.00;1.00;;;;;21.91;46.91;99789.10;111761;1250;20116;-39
2023/04/24 02:57:52;;;;;;;;;2.00;2.00;;;;;21.92;46.90;99783.77;111982;1266;18785;-40
2023/04/24 03:00:19;;;;;;;;;1.00;1.00;;;;;21.92;46.81;99789.23;111686;1266;20746;-39
2023/04/24 03:02:47;;;;;;;;;1.00;1.00;;;;;21.92;46.86;99787.20;111995;1266;20159;-40
2023/04/24 03:05:14;;;;;;;;;1.00;1.00;;;;;21.93;46.71;99786.58;111711;1250;19615;-40
2023/04/24 03:07:42;;;;;;;;;1.50;1.50;;;;;21.93;46.74;99781.14;111973;1266;21735;-39
2023/04/24 03:10:09;;;;;;;;;2.00;2.00;;;;;21.93;46.66;99783.31;111716;1258;21583;-40
2023/04/24 03:12:36;;;;;;;;;1.00;1.00;;;;;21.93;46.53;99779.10;111907;1250;19336;-40
2023/04/24 03:15:04;;;;;;;;;1.00;1.00;;;;;21.92;46.67;99776.85;111778;1266;20824;-40
2023/04/24 03:17:31;;;;;;;;;1.00;1.00;;;;;21.91;46.86;99778.41;111680;1266;20185;-40
2023/04/24 03:19:58;;;;;;;;;2.00;2.00;;;;;21.92;46.88;99775.80;111768;1250;18695;-39
2023/04/24 03:22:26;;;;;;;;;1.00;1.00;;;;;21.90;46.85;99780.22;111463;1266;21001;-39
2023/04/24 03:24:54;;;;;;;;;1.33;1.33;;;;;21.90;46.78;99781.42;111835;1266;20110;-40
2023/04/24 03:27:22;;;;;;;;;1.50;1.50;;;;;21.92;46.69;99778.70;111979;1266;19502;-40
2023/04/24 03:29:51;;;;;;;;;1.33;1.33;;;;;21.92;46.76;99776.80;111718;1266;20673;-40
2023/04/24 03:32:18;;;;;;;;;1.00;1.00;;;;;21.92;46.67;99777.52;111769;1266;20352;-39
2023/04/24 03:34:46;;;;;;;;;2.00;2.00;;;;;21.91;46.67;99778.07;111442;1250;19588;-39
2023/04/24 03:37:13;;;;;;;;;1.00;1.00;;;;;21.90;46.98;99780.72;111799;1250;22086;-39
2023/04/24 03:39:41;;;;;;;;;1.00;1.00;;;;;21.89;46.83;99778.84;111457;1266;20114;-39
2023/04/24 03:42:09;;;;;;;;;1.00;1.00;;;;;21.90;46.82;99781.64;111832;1266;18716;-39
2023/04/24 03:44:36;;;;;;;;;2.00;2.00;;;;;21.92;46.78;99782.51;111573;1266;20713;-38
2023/04/24 03:47:03;;;;;;;;;1.00;1.00;;;;;21.91;46.76;99780.13;111800;1266;20459;-39
2023/04/24 03:49:31;;;;;;;;;2.00;2.00;;;;;21.90;46.90;99776.64;111492;1259;19573;-38
2023/04/24 03:51:58;;;;;;;;;1.00;1.00;;;;;21.90;46.81;99782.23;111828;1266;19486;-38
2023/04/24 03:54:26;;;;;;;;;2.00;2.00;;;;;21.89;46.80;99777.65;111471;1250;21456;-40
2023/04/24 03:56:53;;;;;;;;;1.00;1.00;;;;;21.89;47.03;99776.52;111832;1266;19555;-42
2023/04/24 03:59:20;;;;;;;;;2.00;2.00;;;;;21.90;46.85;99772.23;111502;1266;19327;-39
2023/04/24 04:01:48;;;;;;;;;2.00;2.00;;;;;21.90;46.95;99774.38;111869;1250;22007;-40
2023/04/24 04:04:15;;;;;;;;;2.00;2.00;;;;;21.91;46.87;99775.05;111509;1266;18827;-38
2023/04/24 04:06:43;;;;;;;;;2.00;1.00;;;;;21.89;46.90;99775.55;111875;1266;19363;-38
2023/04/24 04:09:11;;;;;;;;;1.00;1.00;;;;;21.90;46.84;99773.71;111499;1250;21527;-39
2023/04/24 04:11:38;;;;;;;;;2.00;2.00;;;;;21.90;46.80;99778.24;111817;1266;19616;-39
2023/04/24 04:14:06;;;;;;;;;1.00;1.00;;;;;21.90;46.92;99776.90;111440;1266;20705;-40
2023/04/24 04:16:33;;;;;;;;;1.00;1.00;;;;;21.90;46.72;99774.76;111820;1250;21618;-39
2023/04/24 04:19:02;;;;;;;;;1.00;1.00;;;;;21.90;46.85;99775.68;111480;1266;19520;-39
2023/04/24 04:21:31;;;;;;;;;1.00;1.00;;;;;21.90;46.87;99774.97;111618;1266;21776;-39
2023/04/24 04:23:58;;;;;;;;;1.50;1.50;;;;;21.91;46.90;99780.52;111828;1266;20167;-40
2023/04/24 04:26:27;;;;;;;;;1.00;1.00;;;;;21.90;46.99;99775.52;111465;1266;21114;-39
2023/04/24 04:28:54;;;;;;;;;1.00;1.00;;;;;21.90;46.82;99776.27;111723;1266;19454;-39
2023/04/24 04:31:23;;;;;;;;;1.00;1.00;;;;;21.91;46.79;99775.98;111947;1266;20130;-40
2023/04/24 04:33:50;;;;;;;;;1.00;1.00;;;;;21.90;46.81;99776.11;111557;1266;18942;-38
2023/04/24 04:36:18;;;;;;;;;2.00;2.00;;;;;21.89;46.82;99772.48;111871;1266;19543;-38
2023/04/24 04:38:45;;;;;;;;;2.00;2.00;;;;;21.91;46.95;99771.40;111508;1266;22798;-39
2023/04/24 04:41:13;;;;;;;;;2.00;1.00;;;;;21.91;46.84;99770.59;111828;1266;18810;-39
2023/04/24 04:43:40;;;;;;;;;1.67;1.67;;;;;21.90;46.85;99765.11;111544;1258;19532;-39
2023/04/24 04:46:08;;;;;;;;;1.67;1.67;;;;;21.91;46.95;99767.02;111848;1266;21508;-39
2023/04/24 04:48:35;;;;;;;;;1.50;1.50;;;;;21.91;46.83;99770.31;111544;1266;19477;-40
2023/04/24 04:51:03;;;;;;;;;1.00;1.00;;;;;21.90;46.92;99767.55;111846;1266;20653;-40
2023/04/24 04:53:30;;;;;;;;;1.00;1.00;;;;;21.90;46.92;99775.30;111549;1266;24118;-40
2023/04/24 04:55:57;;;;;;;;;2.00;2.00;;;;;21.90;46.72;99781.09;111885;1250;19620;-40
2023/04/24 04:58:25;;;;;;;;;2.00;2.00;;;;;21.90;46.94;99781.09;111600;1266;19369;-39
2023/04/24 05:00:52;;;;;;;;;1.00;1.00;;;;;21.91;46.93;99777.73;111898;1266;20144;-39
2023/04/24 05:03:20;;;;;;;;;1.67;1.33;;;;;21.90;46.70;99770.23;111608;1266;19608;-39
2023/04/24 05:05:47;;;;;;;;;1.00;1.00;;;;;21.91;46.75;99769.13;111923;1250;21811;-39
2023/04/24 05:08:15;;;;;;;;;2.00;2.00;;;;;21.90;46.82;99764.89;111622;1251;21441;-39
2023/04/24 05:10:42;;;;;;;;;1.00;1.00;;;;;21.91;46.95;99763.77;111970;1266;18734;-39
2023/04/24 05:13:10;;;;;;;;;2.00;2.00;;;;;21.90;46.75;99763.05;111639;1250;22015;-40
2023/04/24 05:15:37;;;;;;;;;1.00;1.00;;;;;21.90;46.86;99766.16;111892;1250;21932;-40
2023/04/24 05:18:05;;;;;;;;;1.00;1.00;;;;;21.92;46.89;99766.90;111678;1266;18680;-39
2023/04/24 05:20:32;;;;;;;;;1.00;1.00;;;;;21.91;46.74;99766.23;111895;1250;21963;-39
2023/04/24 05:22:59;;;;;;;;;2.00;2.00;;;;;21.91;46.99;99763.16;111639;1266;20112;-41
2023/04/24 05:25:27;;;;;;;;;1.00;1.00;;;;;21.93;46.99;99765.65;111942;1254;20891;-39
2023/04/24 05:27:54;;;;;;;;;2.00;2.00;;;;;21.95;47.19;99763.09;111686;1250;20774;-38
2023/04/24 05:30:22;;;;;;;;;2.00;2.00;;;;;21.98;47.28;99760.06;111965;1266;20211;-40
2023/04/24 05:32:49;;;;;;;;;7.00;5.00;;;;;21.98;47.23;99757.84;111716;1266;19523;-41
2023/04/24 05:35:16;;;;;;;;;13.00;13.00;;;;;21.86;47.61;99757.83;111887;1250;21948;-39
2023/04/24 05:37:44;;;;;;;;;43.50;38.50;;;;;21.59;48.34;99758.54;111720;1266;20288;-40
2023/04/24 05:40:11;;;;;;;;;54.67;48.33;;;;;21.46;48.78;99755.95;111934;1266;20086;-40
2023/04/24 05:42:39;;;;;;;;;84.00;67.00;;;;;21.41;49.13;99757.68;111768;1266;19652;-40
2023/04/24 05:45:07;;;;;;;;;67.00;51.00;;;;;21.44;49.22;99755.55;111995;1250;21494;-39
2023/04/24 05:47:34;;;;;;;;;64.00;48.00;;;;;21.46;49.58;99754.64;111724;1250;20011;-40
2023/04/24 05:50:02;;;;;;;;;63.00;54.00;;;;;21.50;49.55;99757.80;111834;1252;21000;-40
2023/04/24 05:52:29;;;;;;;;;50.00;43.50;;;;;21.52;49.61;99758.77;111678;1251;20115;-40
2023/04/24 05:54:57;;;;;;;;;38.00;35.00;;;;;21.52;49.46;99756.94;111963;1266;20129;-41
2023/04/24 05:57:24;;;;;;;;;37.00;30.50;;;;;21.50;49.57;99757.71;111669;1266;20909;-40
2023/04/24 05:59:52;;;;;;;;;38.00;32.50;;;;;21.41;49.79;99755.85;111955;1254;22775;-41
2023/04/24 06:02:19;;;;;;;;;32.00;29.00;;;;;21.21;50.03;99750.80;111659;1266;20200;-41
2023/04/24 06:04:47;;;;;;;;;31.67;28.00;;;;;21.11;50.31;99752.34;111981;1266;19470;-39
2023/04/24 06:07:15;;;;;;;;;24.00;22.50;;;;;21.02;50.55;99755.05;111655;1266;21504;-39
2023/04/24 06:09:42;;;;;;;;;25.50;22.50;;;;;21.06;50.35;99752.73;111853;1266;19901;-41
2023/04/24 06:12:10;;;;;;;;;28.00;25.00;;;;;21.03;50.15;99754.02;111644;1250;22015;-40
2023/04/24 06:14:37;;;;;;;;;24.00;21.00;;;;;21.00;50.16;99746.22;111873;1266;22630;-42
2023/04/24 06:17:05;;;;;;;;;26.00;23.00;;;;;20.94;50.09;99745.06;111693;1266;19834;-39
2023/04/24 06:19:32;;;;;;;;;20.00;19.00;;;;;21.01;50.03;99745.39;111855;1250;20835;-40
2023/04/24 06:22:00;;;;;;;;;23.33;20.00;;;;;20.97;49.95;99744.77;111617;1250;21381;-41
2023/04/24 06:24:27;;;;;;;;;23.00;21.00;;;;;20.95;49.83;99749.09;111769;1250;19915;-41
2023/04/24 06:26:56;;;;;;;;;22.00;19.00;;;;;20.85;50.08;99750.33;111656;1251;20908;-39
2023/04/24 06:29:23;;;;;;;;;16.00;15.00;;;;;20.91;50.09;99750.61;111780;1266;23161;-39
2023/04/24 06:31:51;;;;;;;;;19.67;17.00;;;;;21.19;49.38;99746.59;111467;1259;19959;-40
2023/04/24 06:34:18;;;;;;;;;19.50;16.50;;;;;21.40;49.10;99745.48;111818;1266;20786;-39
2023/04/24 06:36:46;;;;;;;;;17.00;16.00;;;;;21.54;48.83;99742.16;111475;1253;22719;-40
2023/04/24 06:39:13;;;;;;;;;17.00;15.50;;;;;21.65;48.78;99742.15;111809;1266;18748;-41
2023/04/24 06:41:41;;;;;;;;;19.00;17.00;;;;;21.58;48.94;99744.77;111484;1250;19465;-40
2023/04/24 06:44:08;;;;;;;;;18.00;17.00;;;;;21.30;49.28;99746.98;111873;1250;20130;-40
2023/04/24 06:46:35;;;;;;;;;22.00;21.00;;;;;21.01;49.83;99744.45;111519;1266;19867;-41
2023/04/24 06:49:03;;;;;;;;;22.50;19.00;;;;;21.01;50.50;99735.70;111825;1266;20740;-41
2023/04/24 06:51:32;;;;;;;;;22.00;19.00;;;;;21.12;50.23;99733.74;111564;1266;20240;-40
2023/04/24 06:54:00;;;;;;;;;19.00;19.00;;;;;21.12;50.46;99729.80;111617;1250;20114;-39
2023/04/24 06:56:28;;;;;;;;;17.00;17.00;;;;;21.10;50.55;99726.73;111885;1266;19575;-41
2023/04/24 06:58:56;;;;;;;;;18.50;16.00;;;;;21.03;50.41;99729.64;111442;1266;20146;-41
2023/04/24 07:01:23;;;;;;;;;19.00;19.00;;;;;21.07;50.19;99727.69;111786;1250;20360;-42
2023/04/24 07:03:51;;;;;;;;;19.00;17.00;;;;;21.00;50.19;99724.84;111470;1266;19419;-41
2023/04/24 07:06:18;;;;;;;;;21.00;20.00;;;;;21.01;50.08;99722.50;111813;1258;21540;-40
2023/04/24 07:08:46;;;;;;;;;19.00;17.00;;;;;21.03;49.89;99722.34;111502;1250;18759;-40
2023/04/24 07:11:13;;;;;;;;;19.00;19.00;;;;;21.05;49.41;99723.23;111820;1259;19467;-42
2023/04/24 07:13:41;;;;;;;;;17.50;17.00;;;;;20.96;49.34;99726.25;111478;1250;21589;-40
2023/04/24 07:16:09;;;;;;;;;18.00;18.00;;;;;20.87;49.36;99727.46;111743;1266;18891;-41
2023/04/24 07:18:37;;;;;;;;;18.67;17.33;;;;;20.79;49.63;99723.06;111788;1250;21416;-40
2023/04/24 07:21:04;;;;;;;;;19.00;18.00;;;;;20.99;49.41;99721.06;111671;1266;20776;-40
2023/04/24 07:23:32;;;;;;;;;20.00;19.33;;;;;21.00;49.22;99719.48;111983;1250;19908;-40
2023/04/24 07:25:59;;;;;;;;;16.50;16.00;;;;;21.16;49.59;99715.39;111681;1266;20866;-39
2023/04/24 07:28:27;;;;;;;;;18.00;16.50;;;;;21.28;49.71;99710.55;111940;1250;20216;-41
2023/04/24 07:30:54;;;;;;;;;16.00;14.00;;;;;21.23;49.96;99716.30;111731;1266;21037;-40
2023/04/24 07:33:21;;;;;;;;;18.50;18.50;;;;;21.16;49.65;99715.11;111886;1266;19454;-40
2023/04/24 07:35:49;;;;;;;;;18.00;16.00;;;;;21.15;49.52;99713.26;111769;1266;22629;-39
2023/04/24 07:38:16;;;;;;;;;16.50;14.00;;;;;21.17;49.09;99707.68;111660;1266;19872;-39
2023/04/24 07:40:44;;;;;;;;;17.00;17.00;;;;;21.32;48.68;99707.84;111809;1266;19447;-40
2023/04/24 07:43:11;;;;;;;;;15.00;15.00;;;;;21.43;48.54;99710.18;111578;1266;20298;-39
2023/04/24 07:45:39;;;;;;;;;18.00;16.50;;;;;21.43;48.12;99715.16;111776;1250;19893;-39
2023/04/24 07:48:08;;;;;;;;;17.00;16.00;;;;;21.28;47.92;99710.58;111902;1266;20622;-40
2023/04/24 07:50:36;;;;;;;;;17.00;14.67;;;;;21.37;47.69;99710.50;111413;1250;21505;-40
2023/04/24 07:53:04;;;;;;;;;19.00;16.50;;;;;21.44;47.50;99707.20;111811;1266;18890;-38
2023/04/24 07:55:31;;;;;;;;;20.00;17.00;;;;;21.45;47.08;99705.36;111493;1266;20800;-39
2023/04/24 07:57:58;;;;;;;;;25.50;23.50;;;;;21.53;47.16;99704.70;111812;1266;20144;-39
2023/04/24 08:00:26;;;;;;;;;92.00;67.50;;;;;21.62;47.25;99702.70;111487;1266;18999;-38
2023/04/24 08:02:53;;;;;;;;;92.50;68.50;;;;;21.66;47.00;99704.73;111803;1266;20714;-38
2023/04/24 08:05:21;;;;;;;;;105.00;76.50;;;;;21.73;46.90;99706.67;111457;1250;21532;-37
2023/04/24 08:07:50;;;;;;;;;94.00;69.50;;;;;21.80;46.95;99709.02;111829;1266;18770;-38
2023/04/24 08:10:17;;;;;;;;;64.00;50.00;;;;;21.84;47.10;99712.42;111876;1266;19618;-41
2023/04/24 08:12:45;;;;;;;;;66.00;50.00;;;;;21.84;47.07;99711.67;111649;1250;22784;-40
2023/04/24 08:15:12;;;;;;;;;55.00;42.00;;;;;21.82;47.13;99709.81;111952;1266;20109;-41
2023/04/24 08:17:40;;;;;;;;;42.50;34.50;;;;;21.80;47.24;99709.69;111669;1266;19489;-39
2023/04/24 08:20:13;;;;;;;;;31.00;25.00;;;;;21.79;47.36;99708.44;111893;1266;21866;-39
2023/04/24 08:22:40;;;;;;;;;25.00;22.00;;;;;21.70;47.07;99703.48;111552;1266;18821;-38
2023/04/24 08:25:08;;;;;;;;;23.00;22.00;;;;;21.59;47.47;99706.77;111837;1265;20823;-39
2023/04/24 08:27:36;;;;;;;;;20.00;18.00;;;;;21.60;47.95;99699.14;111417;1266;195430;-39
2023/04/24 08:30:03;;;;;;;;;19.00;18.00;;;;;21.71;48.12;99700.99;111825;1266;18723;-42
2023/04/24 08:32:31;;;;;;;;;23.00;20.00;;;;;21.78;48.43;99705.58;111456;1250;20889;-40
2023/04/24 08:34:58;;;;;;;;;16.50;15.00;;;;;21.66;47.89;99705.65;111818;1266;21506;-40
2023/04/24 08:37:26;;;;;;;;;15.50;13.50;;;;;21.57;47.50;99703.04;111508;1266;21119;-40
2023/04/24 08:39:53;;;;;;;;;14.00;14.00;;;;;21.51;47.32;99702.52;111837;1250;20933;-38
2023/04/24 08:42:20;;;;;;;;;13.00;13.00;;;;;21.46;46.47;99697.60;111564;1266;21576;-39
2023/04/24 08:44:48;;;;;;;;;14.00;14.00;;;;;21.43;46.28;99700.95;111812;1266;20997;-39
2023/04/24 08:47:15;;;;;;;;;16.00;16.00;;;;;21.48;45.95;99694.68;111561;1266;19287;-39
2023/04/24 08:49:43;;;;;;;;;13.50;13.00;;;;;21.55;45.78;99697.80;111846;1251;22503;-40
2023/04/24 08:52:12;;;;;;;;;15.00;13.00;;;;;21.57;45.74;99701.77;111524;1266;21074;-39
2023/04/24 08:54:40;;;;;;;;;11.00;11.00;;;;;21.63;45.38;99704.71;111649;1266;22068;-38
2023/04/24 08:57:07;;;;;;;;;13.00;11.00;;;;;21.59;45.11;99711.51;111893;1250;22917;-39
2023/04/24 08:59:35;;;;;;;;;10.00;9.00;;;;;21.62;45.07;99711.81;111610;1266;19918;-38
2023/04/24 09:02:02;;;;;;;;;8.00;7.00;;;;;21.74;45.30;99712.80;111919;1265;20795;-38
2023/04/24 09:04:30;;;;;;;;;8.00;8.00;;;;;21.80;45.45;99716.58;111638;1266;21737;-38
2023/04/24 09:06:57;;;;;;;;;5.00;5.00;;;;;21.86;45.40;99717.91;111909;1266;19587;-39
2023/04/24 09:09:25;;;;;;;;;4.00;4.00;;;;;21.89;45.76;99717.09;111616;1266;19740;-38
2023/04/24 09:11:54;;;;;;;;;4.00;4.00;;;;;21.91;45.79;99725.89;111923;1266;21441;-40
2023/04/24 09:14:23;;;;;;;;;2.00;2.00;;;;;21.91;45.98;99717.83;111949;1250;18773;-40
2023/04/24 09:16:51;;;;;;;;;4.00;4.00;;;;;21.91;46.04;99717.59;111463;1250;20758;-38
2023/04/24 09:19:18;;;;;;;;;4.00;4.00;;;;;21.92;46.07;99723.09;111813;1265;20269;-39
2023/04/24 09:21:45;;;;;;;;;8.00;8.00;;;;;21.87;46.05;99719.48;111487;1266;19760;-39
2023/04/24 09:24:13;;;;;;;;;8.00;7.50;;;;;21.63;45.91;99726.36;111869;1253;21155;-39
2023/04/24 09:26:40;;;;;;;;;11.00;11.00;;;;;21.55;45.86;99725.39;111550;1250;21571;-38
2023/04/24 09:29:08;;;;;;;;;10.00;8.00;;;;;21.47;45.81;99731.86;111865;1250;19467;-39
2023/04/24 09:31:36;;;;;;;;;11.00;10.00;;;;;21.44;46.03;99723.34;111470;1250;20877;-39
2023/04/24 09:34:05;;;;;;;;;10.00;10.00;;;;;21.41;46.19;99720.33;111811;1266;20093;-39
2023/04/24 09:36:33;;;;;;;;;10.67;10.00;;;;;21.42;46.37;99717.27;111831;1266;20363;-39
2023/04/24 09:39:01;;;;;;;;;11.00;10.00;;;;;21.33;46.73;99712.41;111425;1266;21848;-39
2023/04/24 09:41:28;;;;;;;;;11.00;11.00;;;;;21.26;47.17;99712.66;111814;1250;21764;-39
2023/04/24 09:43:56;;;;;;;;;12.50;10.50;;;;;21.11;47.44;99709.71;111462;1266;20322;-38
2023/04/24 09:46:23;;;;;;;;;13.00;11.00;;;;;20.97;48.12;99707.82;111803;1250;20861;-37
2023/04/24 09:48:51;;;;;;;;;15.00;13.00;;;;;20.86;48.78;99713.66;111449;1266;22021;-38
2023/04/24 09:51:18;;;;;;;;;15.00;15.00;;;;;20.65;49.05;99709.34;111806;1266;20057;-40
2023/04/24 09:53:46;;;;;;;;;18.50;18.00;;;;;20.73;49.37;99708.04;111503;1266;19434;-38
2023/04/24 09:56:13;;;;;;;;;16.00;15.00;;;;;20.73;49.61;99701.38;111838;1259;22752;-42
2023/04/24 09:58:40;;;;;;;;;19.00;18.00;;;;;20.62;49.95;99696.13;111506;1266;19908;-41
2023/04/24 10:01:08;;;;;;;;;18.00;16.00;;;;;20.49;50.41;99689.19;111864;1266;19462;-40
2023/04/24 10:03:35;;;;;;;;;18.00;15.50;;;;;20.49;50.75;99689.05;111500;1250;21418;-40
2023/04/24 10:06:08;;;;;;;;;15.00;15.00;;;;;20.54;50.67;99684.45;111868;1263;21504;-39
2023/04/24 10:08:35;;;;;;;;;18.33;18.00;;;;;20.69;50.67;99678.77;111518;1266;20802;-37
2023/04/24 10:11:03;;;;;;;;;18.00;16.00;;;;;20.77;50.41;99673.38;111833;1266;20268;-39
2023/04/24 10:13:30;;;;;;;;;15.00;15.00;;;;;20.68;50.57;99674.83;111536;1266;18791;-38
2023/04/24 10:15:58;;;;;;;;;18.00;16.00;;;;;20.76;50.59;99670.27;111858;1250;20964;-38
2023/04/24 10:18:25;;;;;;;;;18.00;16.00;;;;;20.76;50.49;99670.94;111574;1266;20494;-37
2023/04/24 10:20:54;;;;;;;;;17.33;17.33;;;;;20.72;50.71;99680.17;111883;1266;18656;-38
2023/04/24 10:23:22;;;;;;;;;13.00;13.00;;;;;20.57;50.77;99694.92;111958;1266;20808;-40
2023/04/24 10:25:50;;;;;;;;;18.00;17.00;;;;;20.63;50.72;99695.08;111601;1259;21461;-37
2023/04/24 10:28:18;;;;;;;;;16.00;15.00;;;;;20.63;50.63;99696.51;111890;1250;21428;-38
2023/04/24 10:30:45;;;;;;;;;15.50;15.00;;;;;20.65;50.50;99695.09;111621;1266;20680;-40
2023/04/24 10:33:13;;;;;;;;;16.50;15.50;;;;;20.43;50.46;99698.39;111899;1266;20475;-38
2023/04/24 10:35:40;;;;;;;;;16.00;15.00;;;;;20.40;50.18;99699.48;111546;1250;20014;-38
2023/04/24 10:38:08;;;;;;;;;16.00;15.00;;;;;20.47;50.10;99700.58;111873;1266;21023;-39
2023/04/24 10:40:35;;;;;;;;;15.00;15.00;;;;;20.57;49.80;99701.30;111713;1250;21554;-39
2023/04/24 10:43:03;;;;;;;;;18.00;16.00;;;;;20.53;49.71;99701.98;111986;1266;19940;-39
2023/04/24 10:45:30;;;;;;;;;21.00;19.00;;;;;20.41;49.68;99702.84;111580;1266;19476;-38
2023/04/24 10:47:58;;;;;;;;;21.00;18.00;;;;;20.45;49.46;99699.02;111912;1266;20385;-39
2023/04/24 10:50:25;;;;;;;;;16.00;16.00;;;;;20.48;49.57;99698.94;111602;1266;18824;-38
2023/04/24 10:52:54;;;;;;;;;16.50;15.00;;;;;20.51;49.29;99698.95;111923;1266;19461;-39
2023/04/24 10:55:21;;;;;;;;;21.00;19.00;;;;;20.61;49.07;99698.76;111895;1250;21609;-39
2023/04/24 10:57:49;;;;;;;;;20.00;19.00;;;;;20.62;48.83;99697.24;111771;1250;19847;-39
2023/04/24 11:00:16;;;;;;;;;21.00;18.00;;;;;20.59;48.95;99698.33;111730;1266;20844;-39
2023/04/24 11:02:48;;;;;;;;;20.00;20.00;;;;;20.58;48.84;99695.69;111729;1250;20128;-39
2023/04/24 11:05:15;;;;;;;;;19.00;19.00;;;;;20.50;48.82;99694.05;111510;1266;18792;-39
2023/04/24 11:07:43;;;;;;;;;23.50;18.00;;;;;20.40;48.91;99690.02;111856;1250;21154;-39
2023/04/24 11:10:10;;;;;;;;;18.00;18.00;;;;;20.48;49.01;99693.28;111532;1266;21498;-38
2023/04/24 11:12:38;;;;;;;;;21.50;19.00;;;;;20.53;48.70;99689.92;111840;1266;18924;-39
2023/04/24 11:15:05;;;;;;;;;19.00;18.50;;;;;20.50;48.89;99686.56;111577;1266;19456;-39
2023/04/24 11:17:33;;;;;;;;;21.00;19.00;;;;;20.53;48.62;99688.83;111861;1266;21585;-39